To NAV CANADA Home Page Login to a new session Search on AWWS site Feedback and Comments Disclaimer Vers la page française équivalente Tips FAQ What's new on the site To the Forecasts and Observations / NOTAM section To "File a Flight Plan" website Publications and other links Update of the User's profile FIC Telephone Numbers My Weather Data Folder Route Weather Data Regional Weather Data Local Weather Data To the Forecasts and Observations / NOTAM section
Request Generated 04/24/2014 at 14:48:58 UTC . Weather information available at that time is displayed.

METAR/TAF

CALGARY/CALGARY INTL/AB    

METAR CYYC 241400Z 33002KT 40SM FEW190 M00/M03 A2970 RMK AC1 AC TR
SLP096=
METAR CYYC 241300Z VRB02KT 40SM FEW220 M03/M06 A2970 RMK CI1 SLP097=
METAR CYYC 241200Z 33002KT 20SM FEW220 M04/M07 A2970 RMK CI1 CI TR
SLP095=

TAF CYYC 241438Z 2415/2512 VRB03KT P6SM FEW200
BECMG 2416/2418 04008KT
FM242100 12008KT P6SM SCT080
FM250200 11008KT P6SM BKN080 TEMPO 2504/2510 P6SM -SHRA BKN040
FM251000 06010KT P6SM VCSH SCT020 OVC040 TEMPO 2510/2512 3SM
-SHSN VV020
RMK NXT FCST BY 241800Z=
Your time UTC time
Weather data provided by Environment Canada and NAV CANADA